sensor_id;sensor_type;location;lat;lon;timestamp;temperature;humidity
648;DHT22;308;48.948;9.138;2023-12-20T00:00:26;5.10;99.90
648;DHT22;308;48.948;9.138;2023-12-20T00:02:51;5.10;99.90
648;DHT22;308;48.948;9.138;2023-12-20T00:05:17;5.00;99.90
648;DHT22;308;48.948;9.138;2023-12-20T00:07:42;4.90;99.90
648;DHT22;308;48.948;9.138;2023-12-20T00:10:08;5.10;99.90
648;DHT22;308;48.948;9.138;2023-12-20T00:12:34;5.00;99.90
648;DHT22;308;48.948;9.138;2023-12-20T00:14:59;5.00;1.00
648;DHT22;308;48.948;9.138;2023-12-20T00:17:25;5.00;1.00
648;DHT22;308;48.948;9.138;2023-12-20T00:19:50;5.00;1.00
648;DHT22;308;48.948;9.138;2023-12-20T00:22:16;5.10;1.00
648;DHT22;308;48.948;9.138;2023-12-20T00:24:42;5.00;1.00
648;DHT22;308;48.948;9.138;2023-12-20T00:27:07;5.10;1.00
648;DHT22;308;48.948;9.138;2023-12-20T00:29:33;5.10;99.90
648;DHT22;308;48.948;9.138;2023-12-20T00:31:58;5.10;1.00
648;DHT22;308;48.948;9.138;2023-12-20T00:34:24;5.10;1.00
648;DHT22;308;48.948;9.138;2023-12-20T00:36:49;5.10;1.00
648;DHT22;308;48.948;9.138;2023-12-20T00:39:15;5.10;1.00
648;DHT22;308;48.948;9.138;2023-12-20T00:41:40;5.20;1.00
648;DHT22;308;48.948;9.138;2023-12-20T00:44:06;5.10;1.00
648;DHT22;308;48.948;9.138;2023-12-20T00:46:32;5.10;1.00
648;DHT22;308;48.948;9.138;2023-12-20T00:48:57;5.40;1.00
648;DHT22;308;48.948;9.138;2023-12-20T00:51:23;5.40;1.00
648;DHT22;308;48.948;9.138;2023-12-20T00:53:50;5.60;1.00
648;DHT22;308;48.948;9.138;2023-12-20T00:56:16;5.70;1.00
648;DHT22;308;48.948;9.138;2023-12-20T00:58:41;5.70;1.00
648;DHT22;308;48.948;9.138;2023-12-20T01:01:07;5.70;99.90
648;DHT22;308;48.948;9.138;2023-12-20T01:03:32;5.70;1.00
648;DHT22;308;48.948;9.138;2023-12-20T01:05:58;5.80;99.90
648;DHT22;308;48.948;9.138;2023-12-20T01:08:23;5.80;99.90
648;DHT22;308;48.948;9.138;2023-12-20T01:10:49;5.80;99.90
648;DHT22;308;48.948;9.138;2023-12-20T01:13:15;5.80;99.90
648;DHT22;308;48.948;9.138;2023-12-20T01:15:40;5.90;99.90
648;DHT22;308;48.948;9.138;2023-12-20T01:18:06;6.00;99.90
648;DHT22;308;48.948;9.138;2023-12-20T01:20:32;6.10;99.90
648;DHT22;308;48.948;9.138;2023-12-20T01:22:57;6.00;99.90
648;DHT22;308;48.948;9.138;2023-12-20T01:25:23;6.10;99.90
648;DHT22;308;48.948;9.138;2023-12-20T01:27:48;6.00;99.90
648;DHT22;308;48.948;9.138;2023-12-20T01:30:14;6.00;99.90
648;DHT22;308;48.948;9.138;2023-12-20T01:32:40;6.00;1.00
648;DHT22;308;48.948;9.138;2023-12-20T01:35:06;6.10;99.90
648;DHT22;308;48.948;9.138;2023-12-20T01:37:31;6.00;99.90
648;DHT22;308;48.948;9.138;2023-12-20T01:39:57;6.00;1.00
648;DHT22;308;48.948;9.138;2023-12-20T01:42:24;6.00;99.90
648;DHT22;308;48.948;9.138;2023-12-20T01:44:49;5.90;79.80
648;DHT22;308;48.948;9.138;2023-12-20T01:47:15;5.90;90.00
648;DHT22;308;48.948;9.138;2023-12-20T01:49:41;6.00;77.20
648;DHT22;308;48.948;9.138;2023-12-20T01:52:07;6.00;99.90
648;DHT22;308;48.948;9.138;2023-12-20T01:54:34;6.00;1.00
648;DHT22;308;48.948;9.138;2023-12-20T01:57:00;6.00;99.90
648;DHT22;308;48.948;9.138;2023-12-20T01:59:26;6.00;1.00
648;DHT22;308;48.948;9.138;2023-12-20T02:01:54;5.90;1.00
648;DHT22;308;48.948;9.138;2023-12-20T02:04:20;5.90;1.00
648;DHT22;308;48.948;9.138;2023-12-20T02:06:46;5.90;99.90
648;DHT22;308;48.948;9.138;2023-12-20T02:09:12;5.90;1.00
648;DHT22;308;48.948;9.138;2023-12-20T02:11:38;5.80;1.00
648;DHT22;308;48.948;9.138;2023-12-20T02:14:03;5.80;1.00
648;DHT22;308;48.948;9.138;2023-12-20T02:16:29;5.80;99.90
648;DHT22;308;48.948;9.138;2023-12-20T02:18:55;5.70;99.90
648;DHT22;308;48.948;9.138;2023-12-20T02:21:32;5.80;99.90
648;DHT22;308;48.948;9.138;2023-12-20T02:23:59;5.70;99.90
648;DHT22;308;48.948;9.138;2023-12-20T02:26:24;5.70;1.00
648;DHT22;308;48.948;9.138;2023-12-20T02:28:50;5.70;1.00
648;DHT22;308;48.948;9.138;2023-12-20T02:31:16;5.70;1.00
648;DHT22;308;48.948;9.138;2023-12-20T02:33:41;5.60;99.90
648;DHT22;308;48.948;9.138;2023-12-20T02:36:07;5.70;1.00
648;DHT22;308;48.948;9.138;2023-12-20T02:38:33;5.60;1.00
648;DHT22;308;48.948;9.138;2023-12-20T02:40:59;5.70;1.00
648;DHT22;308;48.948;9.138;2023-12-20T02:43:25;5.60;1.00
648;DHT22;308;48.948;9.138;2023-12-20T02:45:50;5.60;1.00
648;DHT22;308;48.948;9.138;2023-12-20T02:48:16;5.50;99.90
648;DHT22;308;48.948;9.138;2023-12-20T02:50:41;5.60;1.00
648;DHT22;308;48.948;9.138;2023-12-20T02:53:07;5.50;99.90
648;DHT22;308;48.948;9.138;2023-12-20T02:55:32;5.50;1.00
648;DHT22;308;48.948;9.138;2023-12-20T02:57:58;5.40;99.90
648;DHT22;308;48.948;9.138;2023-12-20T03:00:24;5.50;1.00
648;DHT22;308;48.948;9.138;2023-12-20T03:02:49;5.40;1.00
648;DHT22;308;48.948;9.138;2023-12-20T03:05:15;5.40;99.90
648;DHT22;308;48.948;9.138;2023-12-20T03:07:40;5.40;99.90
648;DHT22;308;48.948;9.138;2023-12-20T03:10:06;5.50;99.90
648;DHT22;308;48.948;9.138;2023-12-20T03:12:33;5.50;99.90
648;DHT22;308;48.948;9.138;2023-12-20T03:14:59;5.40;99.90
648;DHT22;308;48.948;9.138;2023-12-20T03:17:24;5.40;99.90
648;DHT22;308;48.948;9.138;2023-12-20T03:19:50;5.40;1.00
648;DHT22;308;48.948;9.138;2023-12-20T03:22:15;5.40;1.00
648;DHT22;308;48.948;9.138;2023-12-20T03:24:44;5.40;1.00
648;DHT22;308;48.948;9.138;2023-12-20T03:27:09;5.40;1.00
648;DHT22;308;48.948;9.138;2023-12-20T03:29:35;5.40;1.00
648;DHT22;308;48.948;9.138;2023-12-20T03:32:00;5.40;20.70
648;DHT22;308;48.948;9.138;2023-12-20T03:34:26;5.40;1.00
648;DHT22;308;48.948;9.138;2023-12-20T03:36:52;5.40;99.90
648;DHT22;308;48.948;9.138;2023-12-20T03:39:17;5.40;5.20
648;DHT22;308;48.948;9.138;2023-12-20T03:41:43;5.40;30.90
648;DHT22;308;48.948;9.138;2023-12-20T03:44:09;5.40;1.00
648;DHT22;308;48.948;9.138;2023-12-20T03:46:34;5.40;1.00
648;DHT22;308;48.948;9.138;2023-12-20T03:49:00;5.40;1.00
648;DHT22;308;48.948;9.138;2023-12-20T03:51:25;5.40;99.90
648;DHT22;308;48.948;9.138;2023-12-20T03:53:51;5.40;1.00
648;DHT22;308;48.948;9.138;2023-12-20T03:56:16;5.20;1.00
648;DHT22;308;48.948;9.138;2023-12-20T03:58:42;5.30;1.00
648;DHT22;308;48.948;9.138;2023-12-20T04:01:10;5.20;1.00
648;DHT22;308;48.948;9.138;2023-12-20T04:03:38;5.30;1.00
648;DHT22;308;48.948;9.138;2023-12-20T04:06:04;5.30;1.00
648;DHT22;308;48.948;9.138;2023-12-20T04:08:29;5.30;1.00
648;DHT22;308;48.948;9.138;2023-12-20T04:10:55;5.30;99.90
648;DHT22;308;48.948;9.138;2023-12-20T04:13:21;5.30;99.90
648;DHT22;308;48.948;9.138;2023-12-20T04:15:46;5.20;1.00
648;DHT22;308;48.948;9.138;2023-12-20T04:18:12;5.30;1.00
648;DHT22;308;48.948;9.138;2023-12-20T04:20:37;5.30;10.10
648;DHT22;308;48.948;9.138;2023-12-20T04:23:03;5.30;99.90
648;DHT22;308;48.948;9.138;2023-12-20T04:25:28;5.30;99.90
648;DHT22;308;48.948;9.138;2023-12-20T04:27:54;5.30;99.90
648;DHT22;308;48.948;9.138;2023-12-20T04:30:20;5.30;99.90
648;DHT22;308;48.948;9.138;2023-12-20T04:32:45;5.30;99.90
648;DHT22;308;48.948;9.138;2023-12-20T04:35:11;5.30;99.90
648;DHT22;308;48.948;9.138;2023-12-20T04:37:36;5.30;99.90
648;DHT22;308;48.948;9.138;2023-12-20T04:40:02;5.30;99.90
648;DHT22;308;48.948;9.138;2023-12-20T04:42:28;5.30;99.90
648;DHT22;308;48.948;9.138;2023-12-20T04:44:53;5.30;99.90
648;DHT22;308;48.948;9.138;2023-12-20T04:47:19;5.30;99.90
648;DHT22;308;48.948;9.138;2023-12-20T04:49:44;5.40;99.90
648;DHT22;308;48.948;9.138;2023-12-20T04:52:10;5.40;99.90
648;DHT22;308;48.948;9.138;2023-12-20T04:54:36;5.40;99.90
648;DHT22;308;48.948;9.138;2023-12-20T04:57:01;5.40;99.90
648;DHT22;308;48.948;9.138;2023-12-20T04:59:27;5.40;99.90
648;DHT22;308;48.948;9.138;2023-12-20T05:01:52;5.40;99.90
648;DHT22;308;48.948;9.138;2023-12-20T05:04:18;5.40;99.90
648;DHT22;308;48.948;9.138;2023-12-20T05:06:43;5.30;99.90
648;DHT22;308;48.948;9.138;2023-12-20T05:09:09;5.40;99.90
648;DHT22;308;48.948;9.138;2023-12-20T05:11:34;5.40;99.90
648;DHT22;308;48.948;9.138;2023-12-20T05:14:00;5.40;1.00
648;DHT22;308;48.948;9.138;2023-12-20T05:16:26;5.30;1.00
648;DHT22;308;48.948;9.138;2023-12-20T05:18:51;5.50;1.00
648;DHT22;308;48.948;9.138;2023-12-20T05:21:18;5.40;1.00
648;DHT22;308;48.948;9.138;2023-12-20T05:23:43;5.50;1.00
648;DHT22;308;48.948;9.138;2023-12-20T05:26:09;5.40;1.00
648;DHT22;308;48.948;9.138;2023-12-20T05:28:34;5.50;1.00
648;DHT22;308;48.948;9.138;2023-12-20T05:31:00;5.50;99.90
648;DHT22;308;48.948;9.138;2023-12-20T05:33:28;5.50;1.00
648;DHT22;308;48.948;9.138;2023-12-20T05:35:54;5.50;99.90
648;DHT22;308;48.948;9.138;2023-12-20T05:38:20;5.50;1.00
648;DHT22;308;48.948;9.138;2023-12-20T05:40:45;5.50;99.90
648;DHT22;308;48.948;9.138;2023-12-20T05:43:11;5.50;99.90
648;DHT22;308;48.948;9.138;2023-12-20T05:45:36;5.60;99.90
648;DHT22;308;48.948;9.138;2023-12-20T05:48:02;5.50;99.90
648;DHT22;308;48.948;9.138;2023-12-20T05:50:28;5.50;99.90
648;DHT22;308;48.948;9.138;2023-12-20T05:52:53;5.50;99.90
648;DHT22;308;48.948;9.138;2023-12-20T05:55:19;5.50;99.90
648;DHT22;308;48.948;9.138;2023-12-20T05:57:45;5.50;99.90
648;DHT22;308;48.948;9.138;2023-12-20T06:00:11;5.50;99.90
648;DHT22;308;48.948;9.138;2023-12-20T06:02:36;5.50;1.00
648;DHT22;308;48.948;9.138;2023-12-20T06:05:04;5.60;99.90
648;DHT22;308;48.948;9.138;2023-12-20T06:07:29;5.60;99.90
648;DHT22;308;48.948;9.138;2023-12-20T06:09:55;5.50;99.90
648;DHT22;308;48.948;9.138;2023-12-20T06:12:24;5.50;99.90
648;DHT22;308;48.948;9.138;2023-12-20T06:14:51;5.50;99.90
648;DHT22;308;48.948;9.138;2023-12-20T06:17:17;5.50;1.00
648;DHT22;308;48.948;9.138;2023-12-20T06:19:43;5.60;1.00
648;DHT22;308;48.948;9.138;2023-12-20T06:22:10;5.60;1.00
648;DHT22;308;48.948;9.138;2023-12-20T06:24:36;5.60;1.00
648;DHT22;308;48.948;9.138;2023-12-20T06:27:01;5.50;1.00
648;DHT22;308;48.948;9.138;2023-12-20T06:29:28;5.50;1.00
648;DHT22;308;48.948;9.138;2023-12-20T06:31:53;5.60;1.00
648;DHT22;308;48.948;9.138;2023-12-20T06:34:19;5.50;1.00
648;DHT22;308;48.948;9.138;2023-12-20T06:36:44;5.50;1.00
648;DHT22;308;48.948;9.138;2023-12-20T06:39:10;5.50;1.00
648;DHT22;308;48.948;9.138;2023-12-20T06:41:38;5.50;1.00
648;DHT22;308;48.948;9.138;2023-12-20T06:44:03;5.50;1.00
648;DHT22;308;48.948;9.138;2023-12-20T06:46:31;5.50;1.00
648;DHT22;308;48.948;9.138;2023-12-20T06:48:57;5.50;1.00
648;DHT22;308;48.948;9.138;2023-12-20T06:51:22;5.50;1.00
648;DHT22;308;48.948;9.138;2023-12-20T06:53:53;5.40;1.00
648;DHT22;308;48.948;9.138;2023-12-20T06:56:19;5.50;1.00
648;DHT22;308;48.948;9.138;2023-12-20T06:58:45;5.60;1.00
648;DHT22;308;48.948;9.138;2023-12-20T07:01:15;5.60;99.90
648;DHT22;308;48.948;9.138;2023-12-20T07:03:41;5.60;99.90
648;DHT22;308;48.948;9.138;2023-12-20T07:06:09;5.50;99.90
648;DHT22;308;48.948;9.138;2023-12-20T07:08:35;5.60;99.90
648;DHT22;308;48.948;9.138;2023-12-20T07:11:00;5.60;1.00
648;DHT22;308;48.948;9.138;2023-12-20T07:13:26;5.70;99.90
648;DHT22;308;48.948;9.138;2023-12-20T07:15:52;5.60;99.90
648;DHT22;308;48.948;9.138;2023-12-20T07:18:17;5.50;99.90
648;DHT22;308;48.948;9.138;2023-12-20T07:20:43;5.60;99.90
648;DHT22;308;48.948;9.138;2023-12-20T07:23:09;5.50;99.90
648;DHT22;308;48.948;9.138;2023-12-20T07:25:34;5.50;99.90
648;DHT22;308;48.948;9.138;2023-12-20T07:28:00;5.50;99.90
648;DHT22;308;48.948;9.138;2023-12-20T07:30:26;5.50;99.90
648;DHT22;308;48.948;9.138;2023-12-20T07:32:51;5.40;84.20
648;DHT22;308;48.948;9.138;2023-12-20T07:35:18;5.40;92.00
648;DHT22;308;48.948;9.138;2023-12-20T07:37:43;5.40;1.00
648;DHT22;308;48.948;9.138;2023-12-20T07:40:09;5.50;1.00
648;DHT22;308;48.948;9.138;2023-12-20T07:42:35;5.50;1.00
648;DHT22;308;48.948;9.138;2023-12-20T07:45:01;5.40;1.00
648;DHT22;308;48.948;9.138;2023-12-20T07:47:27;5.40;1.00
648;DHT22;308;48.948;9.138;2023-12-20T07:49:52;5.40;1.00
648;DHT22;308;48.948;9.138;2023-12-20T07:52:18;5.40;1.00
648;DHT22;308;48.948;9.138;2023-12-20T07:54:45;5.40;1.00
648;DHT22;308;48.948;9.138;2023-12-20T07:57:11;5.40;1.00
648;DHT22;308;48.948;9.138;2023-12-20T07:59:36;5.30;1.00
648;DHT22;308;48.948;9.138;2023-12-20T08:02:02;5.30;1.00
648;DHT22;308;48.948;9.138;2023-12-20T08:04:27;5.30;1.00
648;DHT22;308;48.948;9.138;2023-12-20T08:06:53;5.20;99.90
648;DHT22;308;48.948;9.138;2023-12-20T08:09:21;5.20;99.90
648;DHT22;308;48.948;9.138;2023-12-20T08:11:48;5.10;99.90
648;DHT22;308;48.948;9.138;2023-12-20T08:14:14;5.10;99.90
648;DHT22;308;48.948;9.138;2023-12-20T08:16:39;5.20;99.90
648;DHT22;308;48.948;9.138;2023-12-20T08:19:05;5.30;1.00
648;DHT22;308;48.948;9.138;2023-12-20T08:21:30;5.50;99.90
648;DHT22;308;48.948;9.138;2023-12-20T08:23:56;5.60;1.00
648;DHT22;308;48.948;9.138;2023-12-20T08:26:22;5.60;99.90
648;DHT22;308;48.948;9.138;2023-12-20T08:28:49;5.70;1.00
648;DHT22;308;48.948;9.138;2023-12-20T08:31:16;5.70;99.90
648;DHT22;308;48.948;9.138;2023-12-20T08:33:46;5.70;1.00
648;DHT22;308;48.948;9.138;2023-12-20T08:36:12;5.80;99.90
648;DHT22;308;48.948;9.138;2023-12-20T08:38:38;5.90;1.00
648;DHT22;308;48.948;9.138;2023-12-20T08:41:04;6.00;99.90
648;DHT22;308;48.948;9.138;2023-12-20T08:43:34;5.80;99.90
648;DHT22;308;48.948;9.138;2023-12-20T08:46:00;5.80;1.00
648;DHT22;308;48.948;9.138;2023-12-20T08:48:26;5.90;69.60
648;DHT22;308;48.948;9.138;2023-12-20T08:50:51;5.80;1.00
648;DHT22;308;48.948;9.138;2023-12-20T08:53:18;5.90;99.90
648;DHT22;308;48.948;9.138;2023-12-20T08:55:44;5.90;99.90
648;DHT22;308;48.948;9.138;2023-12-20T08:58:10;5.90;1.00
648;DHT22;308;48.948;9.138;2023-12-20T09:00:35;6.10;16.10
648;DHT22;308;48.948;9.138;2023-12-20T09:03:02;6.30;1.00
648;DHT22;308;48.948;9.138;2023-12-20T09:05:28;6.20;1.00
648;DHT22;308;48.948;9.138;2023-12-20T09:07:54;6.30;99.90
648;DHT22;308;48.948;9.138;2023-12-20T09:10:19;6.20;1.00
648;DHT22;308;48.948;9.138;2023-12-20T09:12:51;6.10;1.00
648;DHT22;308;48.948;9.138;2023-12-20T09:15:24;6.40;99.90
648;DHT22;308;48.948;9.138;2023-12-20T09:17:50;6.30;1.00
648;DHT22;308;48.948;9.138;2023-12-20T09:20:16;6.40;1.00
648;DHT22;308;48.948;9.138;2023-12-20T09:22:42;6.00;1.00
648;DHT22;308;48.948;9.138;2023-12-20T09:25:08;6.10;1.00
648;DHT22;308;48.948;9.138;2023-12-20T09:27:34;6.20;99.90
648;DHT22;308;48.948;9.138;2023-12-20T09:30:00;6.40;33.30
648;DHT22;308;48.948;9.138;2023-12-20T09:32:25;6.40;1.00
648;DHT22;308;48.948;9.138;2023-12-20T09:34:51;6.30;99.90
648;DHT22;308;48.948;9.138;2023-12-20T09:37:16;6.40;99.90
648;DHT22;308;48.948;9.138;2023-12-20T09:39:42;6.40;99.90
648;DHT22;308;48.948;9.138;2023-12-20T09:42:08;6.30;99.90
648;DHT22;308;48.948;9.138;2023-12-20T09:44:36;6.20;99.90
648;DHT22;308;48.948;9.138;2023-12-20T09:47:05;6.30;99.90
648;DHT22;308;48.948;9.138;2023-12-20T09:49:32;6.30;94.80
648;DHT22;308;48.948;9.138;2023-12-20T09:52:00;6.20;99.90
648;DHT22;308;48.948;9.138;2023-12-20T09:54:27;6.50;99.90
648;DHT22;308;48.948;9.138;2023-12-20T09:56:53;6.60;70.00
648;DHT22;308;48.948;9.138;2023-12-20T09:59:19;6.40;3.60
648;DHT22;308;48.948;9.138;2023-12-20T10:01:45;6.50;15.90
648;DHT22;308;48.948;9.138;2023-12-20T10:04:12;6.60;6.90
648;DHT22;308;48.948;9.138;2023-12-20T10:06:44;6.80;14.70
648;DHT22;308;48.948;9.138;2023-12-20T10:09:11;6.80;1.00
648;DHT22;308;48.948;9.138;2023-12-20T10:11:38;6.60;1.00
648;DHT22;308;48.948;9.138;2023-12-20T10:14:04;6.30;1.00
648;DHT22;308;48.948;9.138;2023-12-20T10:16:30;6.70;1.00
648;DHT22;308;48.948;9.138;2023-12-20T10:18:56;6.80;1.00
648;DHT22;308;48.948;9.138;2023-12-20T10:21:23;6.70;1.00
648;DHT22;308;48.948;9.138;2023-12-20T10:23:50;6.80;1.00
648;DHT22;308;48.948;9.138;2023-12-20T10:26:26;6.90;1.00
648;DHT22;308;48.948;9.138;2023-12-20T10:28:53;6.90;1.00
648;DHT22;308;48.948;9.138;2023-12-20T10:31:30;6.80;1.00
648;DHT22;308;48.948;9.138;2023-12-20T10:34:00;7.10;1.00
648;DHT22;308;48.948;9.138;2023-12-20T10:36:28;7.00;1.00
648;DHT22;308;48.948;9.138;2023-12-20T10:38:55;7.20;1.00
648;DHT22;308;48.948;9.138;2023-12-20T10:41:29;7.40;1.00
648;DHT22;308;48.948;9.138;2023-12-20T10:44:15;7.40;1.00
648;DHT22;308;48.948;9.138;2023-12-20T10:46:41;7.40;1.00
648;DHT22;308;48.948;9.138;2023-12-20T10:49:13;7.40;1.00
648;DHT22;308;48.948;9.138;2023-12-20T10:51:40;7.30;1.00
648;DHT22;308;48.948;9.138;2023-12-20T10:54:06;7.20;1.00
648;DHT22;308;48.948;9.138;2023-12-20T10:56:32;7.30;1.00
648;DHT22;308;48.948;9.138;2023-12-20T10:59:02;7.20;1.00
648;DHT22;308;48.948;9.138;2023-12-20T11:01:31;7.30;1.00
648;DHT22;308;48.948;9.138;2023-12-20T11:03:57;7.20;1.00
648;DHT22;308;48.948;9.138;2023-12-20T11:06:33;7.10;1.00
648;DHT22;308;48.948;9.138;2023-12-20T11:14:41;6.50;1.00
648;DHT22;308;48.948;9.138;2023-12-20T11:17:11;6.30;1.00
648;DHT22;308;48.948;9.138;2023-12-20T11:22:29;6.40;1.00
648;DHT22;308;48.948;9.138;2023-12-20T11:25:05;6.40;1.00
648;DHT22;308;48.948;9.138;2023-12-20T11:27:32;6.20;1.00
648;DHT22;308;48.948;9.138;2023-12-20T11:29:58;6.40;1.00
648;DHT22;308;48.948;9.138;2023-12-20T11:37:39;6.00;1.00
648;DHT22;308;48.948;9.138;2023-12-20T11:40:11;6.20;1.00
648;DHT22;308;48.948;9.138;2023-12-20T11:42:48;6.20;1.00
648;DHT22;308;48.948;9.138;2023-12-20T11:45:18;6.00;1.00
648;DHT22;308;48.948;9.138;2023-12-20T11:47:48;6.10;1.00
648;DHT22;308;48.948;9.138;2023-12-20T11:50:20;6.20;1.00
648;DHT22;308;48.948;9.138;2023-12-20T11:52:46;6.20;1.00
648;DHT22;308;48.948;9.138;2023-12-20T11:55:13;6.30;1.00
648;DHT22;308;48.948;9.138;2023-12-20T11:57:38;6.20;1.00
648;DHT22;308;48.948;9.138;2023-12-20T12:00:05;6.30;1.00
648;DHT22;308;48.948;9.138;2023-12-20T12:02:31;6.20;1.00
648;DHT22;308;48.948;9.138;2023-12-20T12:04:57;6.10;1.00
648;DHT22;308;48.948;9.138;2023-12-20T12:07:24;6.10;1.00
648;DHT22;308;48.948;9.138;2023-12-20T12:09:50;6.20;1.00
648;DHT22;308;48.948;9.138;2023-12-20T12:12:17;6.40;1.00
648;DHT22;308;48.948;9.138;2023-12-20T12:14:45;6.60;1.00
648;DHT22;308;48.948;9.138;2023-12-20T12:17:14;6.40;1.00
648;DHT22;308;48.948;9.138;2023-12-20T12:19:40;6.30;1.00
648;DHT22;308;48.948;9.138;2023-12-20T12:22:07;6.30;1.00
648;DHT22;308;48.948;9.138;2023-12-20T12:24:44;6.20;1.00
648;DHT22;308;48.948;9.138;2023-12-20T12:27:12;6.40;1.00
648;DHT22;308;48.948;9.138;2023-12-20T12:29:38;6.40;1.00
648;DHT22;308;48.948;9.138;2023-12-20T12:32:05;6.30;1.00
648;DHT22;308;48.948;9.138;2023-12-20T12:34:32;6.30;1.00
648;DHT22;308;48.948;9.138;2023-12-20T12:36:58;6.30;1.00
648;DHT22;308;48.948;9.138;2023-12-20T12:39:24;6.20;1.00
648;DHT22;308;48.948;9.138;2023-12-20T12:41:53;6.10;1.00
648;DHT22;308;48.948;9.138;2023-12-20T12:44:19;6.10;1.00
648;DHT22;308;48.948;9.138;2023-12-20T12:46:46;6.10;1.00
648;DHT22;308;48.948;9.138;2023-12-20T12:49:12;6.00;1.00
648;DHT22;308;48.948;9.138;2023-12-20T12:51:38;6.00;1.00
648;DHT22;308;48.948;9.138;2023-12-20T12:54:03;5.90;1.00
648;DHT22;308;48.948;9.138;2023-12-20T12:56:29;6.10;1.00
648;DHT22;308;48.948;9.138;2023-12-20T12:58:55;6.00;1.00
648;DHT22;308;48.948;9.138;2023-12-20T13:01:21;6.00;1.00
648;DHT22;308;48.948;9.138;2023-12-20T13:03:46;6.10;1.00
648;DHT22;308;48.948;9.138;2023-12-20T13:06:12;6.10;1.00
648;DHT22;308;48.948;9.138;2023-12-20T13:08:38;6.20;1.00
648;DHT22;308;48.948;9.138;2023-12-20T13:11:04;6.20;1.00
648;DHT22;308;48.948;9.138;2023-12-20T13:13:30;6.30;1.00
648;DHT22;308;48.948;9.138;2023-12-20T13:15:58;6.30;1.00
648;DHT22;308;48.948;9.138;2023-12-20T13:18:24;6.30;1.00
648;DHT22;308;48.948;9.138;2023-12-20T13:20:50;6.20;1.00
648;DHT22;308;48.948;9.138;2023-12-20T13:23:15;6.20;1.00
648;DHT22;308;48.948;9.138;2023-12-20T13:25:43;6.20;1.00
648;DHT22;308;48.948;9.138;2023-12-20T13:28:13;6.20;1.00
648;DHT22;308;48.948;9.138;2023-12-20T13:30:40;6.00;1.00
648;DHT22;308;48.948;9.138;2023-12-20T13:33:06;6.30;1.00
648;DHT22;308;48.948;9.138;2023-12-20T13:35:32;6.10;1.00
648;DHT22;308;48.948;9.138;2023-12-20T13:37:58;5.90;1.00
648;DHT22;308;48.948;9.138;2023-12-20T13:40:24;6.00;1.00
648;DHT22;308;48.948;9.138;2023-12-20T13:42:50;6.00;1.00
648;DHT22;308;48.948;9.138;2023-12-20T13:45:16;5.90;1.00
648;DHT22;308;48.948;9.138;2023-12-20T13:47:41;5.90;1.00
648;DHT22;308;48.948;9.138;2023-12-20T13:50:07;5.90;1.00
648;DHT22;308;48.948;9.138;2023-12-20T13:52:33;5.90;1.00
648;DHT22;308;48.948;9.138;2023-12-20T13:54:58;6.10;1.00
648;DHT22;308;48.948;9.138;2023-12-20T13:57:24;5.90;1.00
648;DHT22;308;48.948;9.138;2023-12-20T13:59:49;5.80;1.00
648;DHT22;308;48.948;9.138;2023-12-20T14:02:15;5.90;1.00
648;DHT22;308;48.948;9.138;2023-12-20T14:04:42;5.80;1.00
648;DHT22;308;48.948;9.138;2023-12-20T14:07:07;5.80;1.00
648;DHT22;308;48.948;9.138;2023-12-20T14:09:33;5.70;1.00
648;DHT22;308;48.948;9.138;2023-12-20T14:11:59;5.70;1.00
648;DHT22;308;48.948;9.138;2023-12-20T14:14:27;5.50;1.00
648;DHT22;308;48.948;9.138;2023-12-20T14:16:53;5.60;1.00
648;DHT22;308;48.948;9.138;2023-12-20T14:19:19;5.60;1.00
648;DHT22;308;48.948;9.138;2023-12-20T14:21:44;5.50;1.00
648;DHT22;308;48.948;9.138;2023-12-20T14:24:13;5.50;1.00
648;DHT22;308;48.948;9.138;2023-12-20T14:26:43;5.60;1.00
648;DHT22;308;48.948;9.138;2023-12-20T14:29:08;5.60;1.00
648;DHT22;308;48.948;9.138;2023-12-20T14:31:34;5.50;1.00
648;DHT22;308;48.948;9.138;2023-12-20T14:34:00;5.60;1.00
648;DHT22;308;48.948;9.138;2023-12-20T14:36:29;5.50;1.00
648;DHT22;308;48.948;9.138;2023-12-20T14:38:56;5.50;1.00
648;DHT22;308;48.948;9.138;2023-12-20T14:41:21;5.50;1.00
648;DHT22;308;48.948;9.138;2023-12-20T14:43:50;5.50;1.00
648;DHT22;308;48.948;9.138;2023-12-20T14:46:19;5.50;1.00
648;DHT22;308;48.948;9.138;2023-12-20T14:48:45;5.50;1.00
648;DHT22;308;48.948;9.138;2023-12-20T14:51:11;5.50;1.00
648;DHT22;308;48.948;9.138;2023-12-20T14:53:38;5.50;1.00
648;DHT22;308;48.948;9.138;2023-12-20T14:56:04;5.50;1.00
648;DHT22;308;48.948;9.138;2023-12-20T14:58:31;5.50;1.00
648;DHT22;308;48.948;9.138;2023-12-20T15:00:57;5.50;1.00
648;DHT22;308;48.948;9.138;2023-12-20T15:03:23;5.50;1.00
648;DHT22;308;48.948;9.138;2023-12-20T15:05:48;5.50;1.00
648;DHT22;308;48.948;9.138;2023-12-20T15:08:14;5.40;1.00
648;DHT22;308;48.948;9.138;2023-12-20T15:10:40;5.50;1.00
648;DHT22;308;48.948;9.138;2023-12-20T15:13:05;5.50;1.00
648;DHT22;308;48.948;9.138;2023-12-20T15:15:31;5.50;1.00
648;DHT22;308;48.948;9.138;2023-12-20T15:17:59;5.40;1.00
648;DHT22;308;48.948;9.138;2023-12-20T15:20:25;5.40;1.00
648;DHT22;308;48.948;9.138;2023-12-20T15:22:50;5.40;1.00
648;DHT22;308;48.948;9.138;2023-12-20T15:25:16;5.30;11.70
648;DHT22;308;48.948;9.138;2023-12-20T15:27:47;5.30;99.90
648;DHT22;308;48.948;9.138;2023-12-20T15:30:18;5.30;99.90
648;DHT22;308;48.948;9.138;2023-12-20T15:32:44;5.20;1.00
648;DHT22;308;48.948;9.138;2023-12-20T15:35:10;5.20;99.90
648;DHT22;308;48.948;9.138;2023-12-20T15:37:35;5.20;99.90
648;DHT22;308;48.948;9.138;2023-12-20T15:40:01;5.30;99.90
648;DHT22;308;48.948;9.138;2023-12-20T15:42:27;5.20;99.90
648;DHT22;308;48.948;9.138;2023-12-20T15:44:52;5.20;99.90
648;DHT22;308;48.948;9.138;2023-12-20T15:47:18;5.10;99.90
648;DHT22;308;48.948;9.138;2023-12-20T15:49:43;5.20;99.90
648;DHT22;308;48.948;9.138;2023-12-20T15:52:11;5.10;99.90
648;DHT22;308;48.948;9.138;2023-12-20T15:54:36;5.10;99.90
648;DHT22;308;48.948;9.138;2023-12-20T15:57:04;5.00;99.90
648;DHT22;308;48.948;9.138;2023-12-20T15:59:29;5.00;94.80
648;DHT22;308;48.948;9.138;2023-12-20T16:01:55;5.00;99.90
648;DHT22;308;48.948;9.138;2023-12-20T16:04:21;5.00;99.90
648;DHT22;308;48.948;9.138;2023-12-20T16:06:46;5.00;99.90
648;DHT22;308;48.948;9.138;2023-12-20T16:09:12;5.00;1.00
648;DHT22;308;48.948;9.138;2023-12-20T16:11:38;5.00;1.00
648;DHT22;308;48.948;9.138;2023-12-20T16:14:04;5.00;1.00
648;DHT22;308;48.948;9.138;2023-12-20T16:16:30;5.00;1.00
648;DHT22;308;48.948;9.138;2023-12-20T16:18:56;5.00;99.90
648;DHT22;308;48.948;9.138;2023-12-20T16:21:21;5.00;99.90
648;DHT22;308;48.948;9.138;2023-12-20T16:23:47;5.00;99.90
648;DHT22;308;48.948;9.138;2023-12-20T16:26:12;5.00;99.90
648;DHT22;308;48.948;9.138;2023-12-20T16:28:38;5.00;99.90
648;DHT22;308;48.948;9.138;2023-12-20T16:31:05;5.00;99.90
648;DHT22;308;48.948;9.138;2023-12-20T16:33:31;4.90;99.90
648;DHT22;308;48.948;9.138;2023-12-20T16:35:56;5.00;99.90
648;DHT22;308;48.948;9.138;2023-12-20T16:38:22;5.10;99.90
648;DHT22;308;48.948;9.138;2023-12-20T16:40:48;5.00;99.90
648;DHT22;308;48.948;9.138;2023-12-20T16:43:16;5.00;99.90
648;DHT22;308;48.948;9.138;2023-12-20T16:45:42;5.20;99.90
648;DHT22;308;48.948;9.138;2023-12-20T16:48:08;5.10;99.90
648;DHT22;308;48.948;9.138;2023-12-20T16:50:33;5.10;99.90
648;DHT22;308;48.948;9.138;2023-12-20T16:52:59;5.10;99.90
648;DHT22;308;48.948;9.138;2023-12-20T16:55:25;5.10;99.90
648;DHT22;308;48.948;9.138;2023-12-20T16:57:50;5.10;99.90
648;DHT22;308;48.948;9.138;2023-12-20T17:00:16;5.10;99.90
648;DHT22;308;48.948;9.138;2023-12-20T17:02:42;5.10;99.90
648;DHT22;308;48.948;9.138;2023-12-20T17:05:09;5.10;99.90
648;DHT22;308;48.948;9.138;2023-12-20T17:07:34;5.10;99.90